createdAt,value
2023-02-22T00:02:46.628Z,8.23
2023-02-22T00:07:51.457Z,8.18
2023-02-22T00:12:56.317Z,8.10
2023-02-22T00:17:59.340Z,8.10
2023-02-22T00:23:07.116Z,8.09
2023-02-22T00:28:10.004Z,8.10
2023-02-22T00:33:13.573Z,8.12
2023-02-22T00:38:20.176Z,8.08
2023-02-22T00:43:22.997Z,8.08
2023-02-22T00:48:25.742Z,8.12
2023-02-22T00:53:29.951Z,8.10
2023-02-22T00:58:32.841Z,8.10
2023-02-22T01:03:35.604Z,8.10
2023-02-22T01:08:39.931Z,8.05
2023-02-22T01:13:45.241Z,8.02
2023-02-22T01:18:48.020Z,7.93
2023-02-22T01:23:52.993Z,7.86
2023-02-22T01:28:55.836Z,7.79
2023-02-22T01:33:58.625Z,7.79
2023-02-22T01:39:02.783Z,7.77
2023-02-22T01:44:19.606Z,7.79
2023-02-22T01:49:22.423Z,7.73
2023-02-22T01:54:29.245Z,7.72
2023-02-22T01:59:33.733Z,7.63
2023-02-22T02:04:37.136Z,7.60
2023-02-22T02:09:49.890Z,7.58
2023-02-22T02:14:54.763Z,7.53
2023-02-22T02:20:08.244Z,7.51
2023-02-22T02:25:26.529Z,7.39
2023-02-22T02:30:46.869Z,7.38
2023-02-22T02:35:56.342Z,7.26
2023-02-22T02:41:06.801Z,7.25
2023-02-22T02:46:13.543Z,7.28
2023-02-22T02:51:19.533Z,7.31
2023-02-22T02:56:23.433Z,7.23
2023-02-22T03:01:42.549Z,7.19
2023-02-22T03:06:55.764Z,7.18
2023-02-22T03:12:07.981Z,7.19
2023-02-22T03:17:19.101Z,7.07
2023-02-22T03:22:27.660Z,7.13
2023-02-22T03:27:35.886Z,6.99
2023-02-22T03:32:42.541Z,6.97
2023-02-22T03:37:50.290Z,6.89
2023-02-22T03:42:56.888Z,6.87
2023-02-22T03:48:06.352Z,6.77
2023-02-22T03:53:11.420Z,6.65
2023-02-22T03:58:16.925Z,6.63
2023-02-22T04:03:20.296Z,6.59
2023-02-22T04:08:25.051Z,6.68
2023-02-22T04:13:28.499Z,6.65
2023-02-22T04:18:31.970Z,6.56
2023-02-22T04:23:37.482Z,6.44
2023-02-22T04:28:40.965Z,6.31
2023-02-22T04:33:48.883Z,6.21
2023-02-22T04:38:56.888Z,6.18
2023-02-22T04:43:59.793Z,6.09
2023-02-22T04:49:03.578Z,6.07
2023-02-22T04:54:10.916Z,6.02
2023-02-22T04:59:17.730Z,5.95
2023-02-22T05:04:22.951Z,5.94
2023-02-22T05:09:27.143Z,5.92
2023-02-22T05:14:29.953Z,5.83
2023-02-22T05:19:32.773Z,5.80
2023-02-22T05:24:37.154Z,5.79
2023-02-22T05:29:40.010Z,5.77
2023-02-22T05:34:42.798Z,5.81
2023-02-22T05:39:47.506Z,5.87
2023-02-22T05:44:50.361Z,5.87
2023-02-22T05:49:53.204Z,5.89
2023-02-22T05:54:57.425Z,5.91
2023-02-22T06:00:00.263Z,5.86
2023-02-22T06:05:03.216Z,5.82
2023-02-22T06:10:07.838Z,5.82
2023-02-22T06:15:10.699Z,5.83
2023-02-22T06:20:16.253Z,5.90
2023-02-22T06:25:22.087Z,5.89
2023-02-22T06:30:26.532Z,5.89
2023-02-22T06:35:29.430Z,5.91
2023-02-22T06:40:33.689Z,5.88
2023-02-22T06:45:36.437Z,5.90
2023-02-22T06:50:39.359Z,5.97
2023-02-22T06:55:43.474Z,5.95
2023-02-22T07:00:46.272Z,5.98
2023-02-22T07:05:49.000Z,5.96
2023-02-22T07:10:53.793Z,5.94
2023-02-22T07:15:56.707Z,5.98
2023-02-22T07:20:59.724Z,6.05
2023-02-22T07:26:05.593Z,6.01
2023-02-22T07:31:08.396Z,6.02
2023-02-22T07:36:13.681Z,6.05
2023-02-22T07:41:18.167Z,6.03
2023-02-22T07:46:21.345Z,6.11
2023-02-22T07:51:24.359Z,6.11
2023-02-22T07:56:28.684Z,6.09
2023-02-22T08:01:31.967Z,6.01
2023-02-22T08:06:34.832Z,6.08
2023-02-22T08:11:39.164Z,6.13
2023-02-22T08:16:42.101Z,6.28
2023-02-22T08:21:44.909Z,6.33
2023-02-22T08:26:49.043Z,6.46
2023-02-22T08:31:54.064Z,6.43
2023-02-22T08:36:57.184Z,6.30
2023-02-22T08:42:01.356Z,6.42
2023-02-22T08:47:04.413Z,6.49
2023-02-22T08:52:07.230Z,6.63
2023-02-22T08:57:11.699Z,6.71
2023-02-22T09:02:16.713Z,6.65
2023-02-22T09:07:19.686Z,6.70
2023-02-22T09:12:23.880Z,6.69
2023-02-22T09:17:26.740Z,6.71
2023-02-22T09:22:29.502Z,6.81
2023-02-22T09:27:33.621Z,6.90
2023-02-22T09:32:37.777Z,6.91
2023-02-22T09:37:44.578Z,6.98
2023-02-22T09:42:56.499Z,7.00
2023-02-22T09:48:15.259Z,6.97
2023-02-22T09:53:29.856Z,7.10
2023-02-22T09:58:35.689Z,7.22
2023-02-22T10:03:47.901Z,7.34
2023-02-22T10:08:53.887Z,7.50
2023-02-22T10:14:03.837Z,7.74
2023-02-22T10:19:18.226Z,7.90
2023-02-22T10:24:33.778Z,8.11
2023-02-22T10:29:41.750Z,8.22
2023-02-22T10:34:48.486Z,8.38
2023-02-22T10:39:52.893Z,8.54
2023-02-22T10:44:57.252Z,8.61
2023-02-22T10:50:01.448Z,8.69
2023-02-22T10:55:15.226Z,9.03
2023-02-22T11:00:26.281Z,9.16
2023-02-22T11:05:31.861Z,9.10
2023-02-22T11:10:38.729Z,9.07
2023-02-22T11:15:44.221Z,9.09
2023-02-22T11:20:47.067Z,9.09
2023-02-22T11:25:51.861Z,9.11
2023-02-22T11:30:56.838Z,9.13
2023-02-22T11:36:02.391Z,9.14
2023-02-22T11:41:15.610Z,9.05
2023-02-22T11:46:21.804Z,9.16
2023-02-22T11:51:36.473Z,9.23
2023-02-22T11:56:43.643Z,9.52
2023-02-22T12:01:52.420Z,9.61
2023-02-22T12:07:05.826Z,9.85
2023-02-22T12:12:15.991Z,9.81
2023-02-22T12:17:31.972Z,9.76
2023-02-22T12:22:37.970Z,9.85
2023-02-22T12:28:10.051Z,10.02
2023-02-22T12:33:24.260Z,10.07
2023-02-22T12:38:33.833Z,10.12
2023-02-22T12:43:42.002Z,10.10
2023-02-22T12:48:51.986Z,10.26
2023-02-22T12:54:01.437Z,10.27
2023-02-22T12:59:09.149Z,10.32
2023-02-22T13:04:20.938Z,10.35
2023-02-22T13:09:38.613Z,10.34
2023-02-22T13:14:50.734Z,10.35
2023-02-22T13:20:00.245Z,10.45
2023-02-22T13:25:09.438Z,10.46
2023-02-22T13:30:18.454Z,10.33
2023-02-22T13:35:37.484Z,10.38
2023-02-22T13:40:50.757Z,10.38
2023-02-22T13:46:07.583Z,10.45
2023-02-22T13:51:15.921Z,10.44
2023-02-22T13:56:20.134Z,10.42
2023-02-22T14:01:45.694Z,10.48
2023-02-22T14:06:51.258Z,10.47
2023-02-22T14:11:57.080Z,10.50
2023-02-22T14:17:25.970Z,10.50
2023-02-22T14:22:31.297Z,10.46
2023-02-22T14:27:40.997Z,10.45
2023-02-22T14:32:44.081Z,10.53
2023-02-22T14:37:50.597Z,10.54
2023-02-22T14:43:01.951Z,10.48
2023-02-22T14:48:13.648Z,10.43
2023-02-22T14:53:25.387Z,10.48
2023-02-22T14:58:33.341Z,10.42
2023-02-22T15:03:38.224Z,10.45
2023-02-22T15:08:42.694Z,10.50
2023-02-22T15:13:50.920Z,10.51
2023-02-22T15:18:55.038Z,10.44
2023-02-22T15:24:00.758Z,10.40
2023-02-22T15:29:09.231Z,10.35
2023-02-22T15:34:24.441Z,10.25
2023-02-22T15:39:33.158Z,10.15
2023-02-22T15:44:38.693Z,10.08
2023-02-22T15:49:41.525Z,9.97
2023-02-22T15:54:48.804Z,9.90
2023-02-22T15:59:53.706Z,9.89
2023-02-22T16:04:59.939Z,9.84
2023-02-22T16:10:09.199Z,9.78
2023-02-22T16:15:17.491Z,9.75
2023-02-22T16:20:36.225Z,9.75
2023-02-22T16:25:40.482Z,9.67
2023-02-22T16:30:43.463Z,9.57
2023-02-22T16:36:09.415Z,9.41
2023-02-22T16:41:16.155Z,9.32
2023-02-22T16:46:21.470Z,9.25
2023-02-22T16:51:27.146Z,9.19
2023-02-22T16:56:32.421Z,9.18
2023-02-22T17:01:35.663Z,9.09
2023-02-22T17:06:38.752Z,9.06
2023-02-22T17:11:43.925Z,9.05
2023-02-22T17:16:47.643Z,8.94
2023-02-22T17:21:51.407Z,8.86
2023-02-22T17:26:57.419Z,8.81
2023-02-22T17:32:00.422Z,8.79
2023-02-22T17:37:04.803Z,8.78
2023-02-22T17:42:09.176Z,8.78
2023-02-22T17:47:12.021Z,8.76
2023-02-22T17:52:15.992Z,8.77
2023-02-22T17:57:20.248Z,8.79
2023-02-22T18:02:23.160Z,8.82
2023-02-22T18:07:26.356Z,8.79
2023-02-22T18:12:31.149Z,8.75
2023-02-22T18:17:34.024Z,8.74
2023-02-22T18:22:36.858Z,8.72
2023-02-22T18:27:43.178Z,8.74
2023-02-22T18:32:46.399Z,8.67
2023-02-22T18:37:49.442Z,8.62
2023-02-22T18:42:53.683Z,8.60
2023-02-22T18:47:56.568Z,8.61
2023-02-22T18:52:59.473Z,8.62
2023-02-22T18:58:04.805Z,8.66
2023-02-22T19:03:07.750Z,8.64
2023-02-22T19:08:11.378Z,8.64
2023-02-22T19:13:16.664Z,8.67
2023-02-22T19:18:20.615Z,8.71
2023-02-22T19:23:23.681Z,8.73
2023-02-22T19:28:33.983Z,8.76
2023-02-22T19:33:37.021Z,8.78
2023-02-22T19:38:40.448Z,8.79
2023-02-22T19:43:44.647Z,8.79
2023-02-22T19:48:47.537Z,8.81
2023-02-22T19:53:50.496Z,8.80
2023-02-22T19:58:56.315Z,8.82
2023-02-22T20:04:03.702Z,8.81
2023-02-22T20:09:07.943Z,8.83
2023-02-22T20:14:17.766Z,8.82
2023-02-22T20:19:22.463Z,8.85
2023-02-22T20:24:27.617Z,8.85
2023-02-22T20:29:31.821Z,8.84
2023-02-22T20:34:36.202Z,8.88
2023-02-22T20:39:39.109Z,8.84
2023-02-22T20:44:44.973Z,8.81
2023-02-22T20:49:47.835Z,8.84
2023-02-22T20:54:50.601Z,8.81
2023-02-22T20:59:54.850Z,8.79
2023-02-22T21:04:58.111Z,8.77
2023-02-22T21:10:00.931Z,8.81
2023-02-22T21:15:07.065Z,8.78
2023-02-22T21:20:12.140Z,8.77
2023-02-22T21:25:16.574Z,8.75
2023-02-22T21:30:20.890Z,8.73
2023-02-22T21:35:24.273Z,8.71
2023-02-22T21:40:27.511Z,8.70
2023-02-22T21:45:31.812Z,8.68
2023-02-22T21:50:37.717Z,8.62
2023-02-22T21:55:40.896Z,8.63
2023-02-22T22:00:45.480Z,8.62
2023-02-22T22:05:49.062Z,8.62
2023-02-22T22:10:55.270Z,8.60
2023-02-22T22:16:05.857Z,8.58
2023-02-22T22:21:13.918Z,8.58
2023-02-22T22:26:19.976Z,8.56
2023-02-22T22:31:25.864Z,8.54
2023-02-22T22:36:28.990Z,8.53
2023-02-22T22:41:33.827Z,8.49
2023-02-22T22:46:40.958Z,8.46
2023-02-22T22:51:47.367Z,8.46
2023-02-22T22:56:50.300Z,8.48
2023-02-22T23:01:56.642Z,8.44
2023-02-22T23:07:00.553Z,8.49
2023-02-22T23:12:09.450Z,8.48
2023-02-22T23:17:15.332Z,8.47
2023-02-22T23:22:18.141Z,8.45
2023-02-22T23:27:20.872Z,8.52
2023-02-22T23:32:26.748Z,8.47
2023-02-22T23:37:35.356Z,8.43
2023-02-22T23:42:38.765Z,8.32
2023-02-22T23:47:43.809Z,8.17
2023-02-22T23:52:46.713Z,8.06
2023-02-22T23:57:49.589Z,7.98
